Aérodrome :
LOGIN :

S'inscrire | Disclaimer

   EN    FR    IT 

 










Légende :    VFR   VFR Marginal   IFR   IFR Intensif   IFR Très Intensif
Visi : 
Plafond : 
>= 8 km
>= 3000ft
5 à 8 km
1000 à 3000 ft
1500m à 5 km
500 à 1000 ft
800 à 1500m
200 à 500 ft
< 800m
< 200 ft
Symboles :   Orages  Brouillard  Fortes neiges  Fortes précipitations  Vent > 20 kt
SIGMETs :   Divers  Orages  Givrage  Turbulence  Onde Orograph.  Cendres Volcan.







- Altitude de l'aérodrome : 580 ft
- Voir les cartes d'approche


LFOA - Avord

DERNIER METAR :
  • 231000Z AUTO 26006KT 9999 -RA BKN006 BKN011 OVC016 07/07 Q1008 TEMPO 2500 -TSRA BKN003 BKN020CB

METARs EXPIRÉS :
  • 230930Z AUTO 25006KT 6000 -RA BKN004/// BKN013/// BKN021/// ///CB 07/06 Q1008 TEMPO 2500 -TSRA SCT003 BKN006 BKN015TCU
  • 230900Z AUTO 23007KT 5000 -RA BR BKN005/// BKN015/// BKN024/// ///TCU 06/06 Q1008 TEMPO SHRA
  • 230830Z AUTO VRB02KT 8000 -RA BKN004/// BKN027/// OVC043/// ///TCU 06/06 Q1008 TEMPO 4000 SHRA BKN005 BKN015TCU
  • 230800Z AUTO VRB02KT 9000 SCT004 BKN048 OVC100 06/06 Q1007 TEMPO 4000 SHRA BKN005 BKN015TCU
  • 230730Z AUTO VRB01KT 7000 SCT005/// BKN046/// OVC054/// ///TCU 05/05 Q1007 TEMPO 4000 SHRA

TAF TAF LFOA
Valide du 23 à 09h jusqu'au 24 à 09h UTC


230800Z 2309/2409 VRB02KT 8000 SCT005 BKN045
TEMPO 2309/2319 4000 SHRA SCT003 BKN006 BKN015TCU
PROB30
TEMPO 2311/2316 2500 -TSRA BKN003 BKN020CB
PROB30
TEMPO 2323/2403 3000 BR
TEMPO 2404/2409 4000 SHRA BKN008 BKN015TCU
Pas de NOTAMs connus pour ce terrain.



MET'MAP, la Météo Aéronautique d'un coup d'oeil ! - Copyright ORBIFLY Décembre 2007 - Disclaimer

ORBIFLY MET'MAP TEAM :

Programmation & Développement : Alexandra Zaïnal
Conception & Développement : Baudouin d'Aumeries
Co-Programmation & Développement : Marc-Olivier Méhu
Soutien technique & logistique : Manuel Goepfert

Contact : metmap@orbifly.com




SOURCES & CREDITS :

   NOAA